Aviation Digital Data Service (ADDS)

Output produced by METARs form (1914 UTC 30 July 2014)
found at http://aviationweather.gov/adds/metars/
 
KVQQ 301731Z 3018/3118 32005KT P6SM SCT060 
     FM302200 09008KT P6SM SCT060 
     FM310100 00000KT P6SM FEW020 
     FM311500 14006KT P6SM SCT070